createdAt,value
2022-09-01T00:01:39.283Z,17.90
2022-09-01T00:04:08.899Z,17.80
2022-09-01T00:06:36.286Z,17.70
2022-09-01T00:09:09.993Z,17.50
2022-09-01T00:11:37.732Z,17.50
2022-09-01T00:14:06.901Z,17.40
2022-09-01T00:16:50.191Z,17.40
2022-09-01T00:19:19.124Z,17.50
2022-09-01T00:21:46.162Z,17.50
2022-09-01T00:24:17.793Z,17.60
2022-09-01T00:26:46.261Z,17.60
2022-09-01T00:29:13.222Z,17.60
2022-09-01T00:31:40.931Z,17.60
2022-09-01T00:34:07.899Z,17.60
2022-09-01T00:36:34.900Z,17.60
2022-09-01T00:39:02.282Z,17.60
2022-09-01T00:41:32.295Z,17.70
2022-09-01T00:44:07.421Z,17.70
2022-09-01T00:46:47.653Z,17.70
2022-09-01T00:49:26.285Z,17.60
2022-09-01T00:51:58.855Z,17.60
2022-09-01T00:54:32.690Z,17.70
2022-09-01T00:57:02.127Z,17.70
2022-09-01T00:59:30.323Z,17.70
2022-09-01T01:01:58.256Z,17.60
2022-09-01T01:04:25.233Z,17.70
2022-09-01T01:07:03.080Z,17.70
2022-09-01T01:09:38.461Z,17.70
2022-09-01T01:12:07.335Z,17.60
2022-09-01T01:14:36.951Z,17.40
2022-09-01T01:17:04.041Z,17.50
2022-09-01T01:19:49.573Z,17.40
2022-09-01T01:22:59.644Z,17.40
2022-09-01T01:25:27.001Z,17.50
2022-09-01T01:28:11.486Z,17.50
2022-09-01T01:30:41.887Z,17.50
2022-09-01T01:33:09.471Z,17.50
2022-09-01T01:35:38.707Z,17.50
2022-09-01T01:38:07.981Z,17.40
2022-09-01T01:40:36.500Z,17.30
2022-09-01T01:43:04.873Z,17.40
2022-09-01T01:45:32.059Z,17.40
2022-09-01T01:48:00.353Z,17.40
2022-09-01T01:50:35.585Z,17.50
2022-09-01T01:53:10.885Z,17.60
2022-09-01T01:55:39.835Z,17.60
2022-09-01T01:58:08.108Z,17.60
2022-09-01T02:00:35.121Z,17.70
2022-09-01T02:03:02.203Z,17.60
2022-09-01T02:05:33.360Z,17.60
2022-09-01T02:08:04.671Z,17.60
2022-09-01T02:10:39.255Z,17.70
2022-09-01T02:13:07.762Z,17.70
2022-09-01T02:15:43.702Z,17.60
2022-09-01T02:18:14.226Z,17.60
2022-09-01T02:20:41.955Z,17.60
2022-09-01T02:23:10.846Z,17.70
2022-09-01T02:26:14.188Z,17.70
2022-09-01T02:28:37.114Z,17.70
2022-09-01T02:31:05.234Z,17.70
2022-09-01T02:33:32.490Z,17.60
2022-09-01T02:36:03.580Z,17.60
2022-09-01T02:38:31.244Z,17.60
2022-09-01T02:40:59.136Z,17.50
2022-09-01T02:43:28.439Z,17.60
2022-09-01T02:46:01.116Z,17.50
2022-09-01T02:48:40.175Z,17.50
2022-09-01T02:51:14.168Z,17.50
2022-09-01T02:53:42.897Z,17.40
2022-09-01T02:56:17.117Z,17.40
2022-09-01T02:58:48.384Z,17.40
2022-09-01T03:01:26.062Z,17.40
2022-09-01T03:03:59.825Z,17.40
2022-09-01T03:06:28.206Z,17.30
2022-09-01T03:09:00.139Z,17.30
2022-09-01T03:11:29.968Z,17.30
2022-09-01T03:13:57.525Z,17.30
2022-09-01T03:16:24.798Z,17.40
2022-09-01T03:18:52.414Z,17.40
2022-09-01T03:21:20.688Z,17.30
2022-09-01T03:23:49.653Z,17.40
2022-09-01T03:26:19.392Z,17.40
2022-09-01T03:28:46.853Z,17.40
2022-09-01T03:31:14.003Z,17.40
2022-09-01T03:33:42.170Z,17.40
2022-09-01T03:36:14.904Z,17.30
2022-09-01T03:38:43.965Z,17.40
2022-09-01T03:41:13.315Z,17.40
2022-09-01T03:43:46.893Z,17.30
2022-09-01T03:46:22.175Z,17.30
2022-09-01T03:48:51.771Z,17.30
2022-09-01T03:51:22.173Z,17.30
2022-09-01T03:53:50.661Z,17.40
2022-09-01T03:56:17.491Z,17.30
2022-09-01T03:58:47.400Z,17.40
2022-09-01T04:01:16.092Z,17.40
2022-09-01T04:03:46.003Z,17.40
2022-09-01T04:06:13.816Z,17.30
2022-09-01T04:08:40.729Z,17.30
2022-09-01T04:11:18.461Z,17.30
2022-09-01T04:13:47.341Z,17.30
2022-09-01T04:16:54.129Z,17.20
2022-09-01T04:19:27.570Z,17.20
2022-09-01T04:21:59.153Z,17.20
2022-09-01T04:24:28.268Z,17.20
2022-09-01T04:27:02.262Z,17.20
2022-09-01T04:29:30.200Z,17.20
2022-09-01T04:32:02.548Z,17.20
2022-09-01T04:34:37.408Z,17.10
2022-09-01T04:37:09.550Z,17.00
2022-09-01T04:39:39.064Z,17.10
2022-09-01T04:42:06.922Z,17.00
2022-09-01T04:44:33.819Z,17.00
2022-09-01T04:47:00.684Z,17.00
2022-09-01T04:49:28.202Z,16.90
2022-09-01T04:51:55.060Z,16.90
2022-09-01T04:54:22.990Z,16.90
2022-09-01T04:56:52.404Z,16.90
2022-09-01T04:59:22.075Z,16.80
2022-09-01T05:01:50.617Z,16.90
2022-09-01T05:04:21.315Z,16.90
2022-09-01T05:07:01.134Z,16.80
2022-09-01T05:09:36.728Z,16.90
2022-09-01T05:12:13.278Z,16.90
2022-09-01T05:14:48.549Z,17.00
2022-09-01T05:17:17.283Z,17.00
2022-09-01T05:19:47.789Z,16.90
2022-09-01T05:22:15.751Z,16.90
2022-09-01T05:24:42.653Z,16.90
2022-09-01T05:27:10.617Z,16.90
2022-09-01T05:29:38.642Z,17.00
2022-09-01T05:32:10.010Z,17.00
2022-09-01T05:34:38.877Z,17.10
2022-09-01T05:37:08.454Z,17.10
2022-09-01T05:39:38.020Z,17.00
2022-09-01T05:42:08.336Z,17.10
2022-09-01T05:44:36.480Z,17.10
2022-09-01T05:47:05.413Z,17.10
2022-09-01T05:49:33.309Z,17.10
2022-09-01T05:52:00.721Z,17.10
2022-09-01T05:54:29.146Z,17.10
2022-09-01T05:57:23.420Z,17.10
2022-09-01T05:59:53.796Z,17.20
2022-09-01T06:02:22.773Z,17.20
2022-09-01T06:04:49.933Z,17.20
2022-09-01T06:07:18.234Z,17.20
2022-09-01T06:09:48.581Z,17.30
2022-09-01T06:12:20.416Z,17.30
2022-09-01T06:14:48.732Z,17.30
2022-09-01T06:17:18.724Z,17.30
2022-09-01T06:19:46.765Z,17.40
2022-09-01T06:22:13.866Z,17.30
2022-09-01T06:24:40.891Z,17.30
2022-09-01T06:27:10.905Z,17.40
2022-09-01T06:29:41.739Z,17.40
2022-09-01T06:32:10.506Z,17.40
2022-09-01T06:34:42.604Z,17.40
2022-09-01T06:37:11.089Z,17.40
2022-09-01T06:39:38.674Z,17.40
2022-09-01T06:42:06.780Z,17.50
2022-09-01T06:44:33.849Z,17.60
2022-09-01T06:47:01.272Z,17.50
2022-09-01T06:49:34.720Z,17.60
2022-09-01T06:52:03.092Z,17.60
2022-09-01T06:54:34.084Z,17.60
2022-09-01T06:59:52.584Z,17.60
2022-09-01T07:02:20.534Z,17.60
2022-09-01T07:04:53.662Z,17.60
2022-09-01T07:10:25.360Z,17.60
2022-09-01T07:13:05.632Z,17.60
2022-09-01T07:18:23.320Z,17.60
2022-09-01T07:21:35.760Z,17.60
2022-09-01T07:23:47.412Z,17.60
2022-09-01T07:26:26.612Z,17.70
2022-09-01T07:29:01.661Z,17.60
2022-09-01T07:42:55.575Z,17.60
2022-09-01T07:43:00.020Z,17.60
2022-09-01T07:43:09.271Z,17.80
2022-09-01T07:45:47.274Z,17.80
2022-09-01T07:48:35.977Z,17.90
2022-09-01T07:51:35.675Z,18.10
2022-09-01T07:53:51.487Z,18.10
2022-09-01T07:56:20.908Z,18.20
2022-09-01T07:58:49.464Z,18.30
2022-09-01T08:01:19.200Z,18.30
2022-09-01T08:03:49.777Z,18.30
2022-09-01T08:06:19.485Z,18.40
2022-09-01T08:08:48.428Z,18.50
2022-09-01T08:11:40.102Z,18.50
2022-09-01T08:14:09.462Z,18.60
2022-09-01T08:16:40.004Z,18.60
2022-09-01T08:19:16.552Z,18.80
2022-09-01T08:21:44.016Z,18.90
2022-09-01T08:24:11.117Z,18.90
2022-09-01T08:26:38.951Z,19.00
2022-09-01T08:29:06.947Z,19.10
2022-09-01T08:31:37.201Z,19.10
2022-09-01T08:34:07.668Z,19.10
2022-09-01T08:36:35.576Z,19.10
2022-09-01T08:39:03.126Z,19.40
2022-09-01T08:42:02.898Z,19.30
2022-09-01T08:44:48.971Z,19.60
2022-09-01T08:47:28.107Z,19.40
2022-09-01T08:50:00.889Z,19.50
2022-09-01T08:52:35.401Z,19.70
2022-09-01T08:55:18.192Z,19.80
2022-09-01T08:57:46.519Z,19.80
2022-09-01T09:00:18.288Z,19.90
2022-09-01T09:03:22.327Z,20.00
2022-09-01T09:06:11.395Z,20.10
2022-09-01T09:08:58.191Z,20.20
2022-09-01T09:11:53.205Z,20.20
2022-09-01T09:14:35.560Z,20.40
2022-09-01T09:17:04.449Z,20.40
2022-09-01T09:19:36.294Z,20.50
2022-09-01T09:22:11.367Z,20.50
2022-09-01T09:24:57.938Z,20.60
2022-09-01T09:27:46.375Z,20.70
2022-09-01T09:30:15.891Z,20.80
2022-09-01T09:35:43.741Z,20.90
2022-09-01T09:38:24.188Z,21.00
2022-09-01T09:41:18.490Z,21.10
2022-09-01T09:43:49.354Z,21.10
2022-09-01T09:46:43.665Z,21.20
2022-09-01T09:49:36.087Z,21.30
2022-09-01T09:52:16.397Z,21.40
2022-09-01T09:55:22.279Z,21.60
2022-09-01T09:57:53.186Z,21.60
2022-09-01T10:00:34.908Z,21.70
2022-09-01T10:03:08.735Z,22.00
2022-09-01T10:05:51.732Z,22.20
2022-09-01T10:08:28.409Z,22.40
2022-09-01T10:10:57.545Z,22.50
2022-09-01T10:13:29.193Z,22.60
2022-09-01T10:16:03.764Z,22.50
2022-09-01T10:18:40.721Z,22.50
2022-09-01T10:21:19.340Z,22.50
2022-09-01T10:23:52.463Z,22.60
2022-09-01T10:26:31.230Z,22.60
2022-09-01T10:29:12.181Z,22.60
2022-09-01T10:31:41.774Z,22.70
2022-09-01T10:34:19.406Z,22.80
2022-09-01T10:36:54.899Z,22.70
2022-09-01T10:39:30.511Z,22.80
2022-09-01T10:42:07.641Z,22.90
2022-09-01T10:44:39.149Z,23.00
2022-09-01T10:47:33.882Z,23.10
2022-09-01T10:50:23.572Z,23.50
2022-09-01T10:52:57.480Z,24.00
2022-09-01T10:55:39.484Z,24.50
2022-09-01T11:01:14.404Z,24.80
2022-09-01T11:03:57.277Z,24.70
2022-09-01T11:06:33.907Z,24.00
2022-09-01T11:09:06.680Z,23.50
2022-09-01T11:11:46.067Z,23.30
2022-09-01T11:14:55.752Z,23.10
2022-09-01T11:17:27.620Z,23.10
2022-09-01T11:20:10.224Z,23.40
2022-09-01T11:22:40.315Z,23.40
2022-09-01T11:25:12.958Z,23.10
2022-09-01T11:27:49.108Z,22.90
2022-09-01T11:30:35.397Z,23.00
2022-09-01T11:33:16.743Z,22.80
2022-09-01T11:35:46.039Z,22.70
2022-09-01T11:38:16.408Z,23.20
2022-09-01T11:40:43.609Z,24.60
2022-09-01T11:43:27.180Z,25.60
2022-09-01T11:46:17.610Z,26.40
2022-09-01T11:48:51.877Z,26.60
2022-09-01T11:51:19.214Z,25.80
2022-09-01T11:53:46.813Z,25.20
2022-09-01T11:56:17.658Z,24.70
2022-09-01T11:58:44.879Z,24.20
2022-09-01T12:01:33.822Z,23.90
2022-09-01T12:04:18.839Z,24.50
2022-09-01T12:06:56.617Z,26.50
2022-09-01T12:09:38.721Z,27.70
2022-09-01T12:12:08.472Z,28.30
2022-09-01T12:15:02.089Z,28.70
2022-09-01T12:17:22.648Z,28.00
2022-09-01T12:19:49.583Z,27.20
2022-09-01T12:22:20.372Z,26.30
2022-09-01T12:24:53.392Z,25.80
2022-09-01T12:27:23.150Z,25.40
2022-09-01T12:29:51.527Z,26.00
2022-09-01T12:32:19.847Z,27.20
2022-09-01T12:35:01.479Z,28.20
2022-09-01T12:37:29.610Z,29.00
2022-09-01T12:39:58.660Z,29.50
2022-09-01T12:42:41.007Z,30.40
2022-09-01T12:45:10.139Z,30.60
2022-09-01T12:47:37.579Z,30.70
2022-09-01T12:50:13.783Z,30.80
2022-09-01T12:52:55.582Z,30.80
2022-09-01T12:55:47.675Z,30.80
2022-09-01T12:58:23.947Z,30.70
2022-09-01T13:01:22.125Z,29.60
2022-09-01T13:04:15.152Z,29.30
2022-09-01T13:06:42.311Z,29.90
2022-09-01T13:09:10.278Z,29.60
2022-09-01T13:14:25.644Z,28.20
2022-09-01T13:16:52.629Z,27.90
2022-09-01T13:19:27.445Z,28.50
2022-09-01T13:21:55.758Z,29.20
2022-09-01T13:24:28.071Z,29.50
2022-09-01T13:29:43.872Z,30.50
2022-09-01T13:32:19.651Z,31.20
2022-09-01T13:34:52.135Z,31.80
2022-09-01T13:37:21.785Z,31.40
2022-09-01T13:39:49.468Z,30.40
2022-09-01T13:42:17.459Z,29.40
2022-09-01T13:44:45.651Z,29.50
2022-09-01T13:47:29.723Z,30.30
2022-09-01T13:50:08.373Z,31.40
2022-09-01T13:52:38.288Z,31.90
2022-09-01T13:55:06.618Z,32.20
2022-09-01T13:57:36.015Z,32.70
2022-09-01T14:00:05.938Z,32.60
2022-09-01T14:02:32.828Z,32.40
2022-09-01T14:04:59.951Z,33.10
2022-09-01T14:07:26.960Z,33.20
2022-09-01T14:09:55.069Z,33.30
2022-09-01T14:12:22.404Z,33.60
2022-09-01T14:17:37.118Z,33.40
2022-09-01T14:20:12.840Z,33.80
2022-09-01T14:22:40.892Z,34.10
2022-09-01T14:25:10.544Z,34.10
2022-09-01T14:27:38.427Z,34.50
2022-09-01T14:30:08.078Z,34.90
2022-09-01T14:32:35.368Z,34.70
2022-09-01T14:35:02.736Z,34.60
2022-09-01T14:37:29.662Z,34.20
2022-09-01T14:39:58.151Z,33.80
2022-09-01T14:42:25.821Z,33.70
2022-09-01T14:44:56.039Z,33.60
2022-09-01T14:47:25.991Z,34.30
2022-09-01T14:49:53.962Z,34.60
2022-09-01T14:52:21.984Z,34.80
2022-09-01T14:54:49.360Z,34.70
2022-09-01T14:57:36.615Z,34.60
2022-09-01T15:00:06.600Z,34.20
2022-09-01T15:02:33.825Z,34.40
2022-09-01T15:05:00.821Z,33.80
2022-09-01T15:07:27.851Z,32.30
2022-09-01T15:09:54.677Z,31.70
2022-09-01T15:12:22.430Z,32.10
2022-09-01T15:14:49.292Z,32.20
2022-09-01T15:17:16.163Z,32.40
2022-09-01T15:19:43.151Z,31.90
2022-09-01T15:22:14.515Z,32.20
2022-09-01T15:24:41.376Z,32.40
2022-09-01T15:27:08.731Z,32.80
2022-09-01T15:29:45.895Z,33.00
2022-09-01T15:32:20.856Z,33.40
2022-09-01T15:34:54.839Z,33.50
2022-09-01T15:37:21.815Z,33.70
2022-09-01T15:39:48.677Z,33.70
2022-09-01T15:42:16.782Z,33.40
2022-09-01T15:44:43.666Z,33.80
2022-09-01T15:47:10.541Z,33.50
2022-09-01T15:49:37.644Z,33.60
2022-09-01T15:52:04.516Z,33.80
2022-09-01T15:54:31.506Z,33.90
2022-09-01T15:56:58.406Z,33.80
2022-09-01T15:59:25.311Z,34.10
2022-09-01T16:01:54.143Z,34.30
2022-09-01T16:04:26.907Z,34.20
2022-09-01T16:06:56.557Z,33.90
2022-09-01T16:09:25.411Z,33.80
2022-09-01T16:11:53.163Z,34.10
2022-09-01T16:14:21.168Z,33.80
2022-09-01T16:17:03.344Z,33.60
2022-09-01T16:19:52.636Z,33.50
2022-09-01T16:22:33.037Z,33.50
2022-09-01T16:25:04.299Z,32.40
2022-09-01T16:27:36.270Z,32.40
2022-09-01T16:30:09.730Z,32.50
2022-09-01T16:32:39.383Z,32.10
2022-09-01T16:35:06.968Z,32.40
2022-09-01T16:37:45.696Z,32.70
2022-09-01T16:40:31.215Z,32.90
2022-09-01T16:43:16.329Z,33.00
2022-09-01T16:45:51.048Z,33.40
2022-09-01T16:48:20.976Z,33.50
2022-09-01T16:51:12.721Z,33.70
2022-09-01T16:54:13.245Z,33.70
2022-09-01T16:57:06.601Z,33.80
2022-09-01T16:59:56.158Z,33.40
2022-09-01T17:02:51.074Z,33.10
2022-09-01T17:05:31.221Z,32.70
2022-09-01T17:08:22.339Z,32.60
2022-09-01T17:11:04.719Z,32.50
2022-09-01T17:13:32.347Z,32.30
2022-09-01T17:16:07.994Z,31.70
2022-09-01T17:18:56.947Z,31.00
2022-09-01T17:21:32.272Z,30.30
2022-09-01T17:24:28.451Z,29.50
2022-09-01T17:27:05.100Z,28.80
2022-09-01T17:29:48.017Z,28.20
2022-09-01T17:32:50.735Z,27.80
2022-09-01T17:35:37.653Z,27.40
2022-09-01T17:38:23.596Z,27.00
2022-09-01T17:41:16.031Z,26.60
2022-09-01T17:44:18.141Z,26.40
2022-09-01T17:47:03.643Z,26.10
2022-09-01T17:50:04.298Z,26.00
2022-09-01T17:52:56.353Z,25.80
2022-09-01T17:55:35.514Z,25.70
2022-09-01T17:58:27.137Z,25.50
2022-09-01T18:01:28.356Z,25.40
2022-09-01T18:03:59.190Z,25.40
2022-09-01T18:06:39.284Z,25.20
2022-09-01T18:09:07.265Z,25.10
2022-09-01T18:12:01.211Z,25.00
2022-09-01T18:14:37.153Z,24.80
2022-09-01T18:17:15.780Z,24.70
2022-09-01T18:19:51.125Z,24.60
2022-09-01T18:22:21.523Z,24.60
2022-09-01T18:25:07.063Z,24.50
2022-09-01T18:27:35.160Z,24.40
2022-09-01T18:30:02.360Z,24.30
2022-09-01T18:32:42.087Z,24.20
2022-09-01T18:35:41.122Z,24.20
2022-09-01T18:38:28.623Z,24.10
2022-09-01T18:41:14.039Z,24.00
2022-09-01T18:43:43.944Z,24.00
2022-09-01T18:46:22.864Z,23.90
2022-09-01T18:49:05.061Z,23.80
2022-09-01T18:52:06.289Z,23.70
2022-09-01T18:54:42.135Z,23.60
2022-09-01T18:57:15.804Z,23.50
2022-09-01T19:00:22.016Z,23.40
2022-09-01T19:03:02.550Z,23.30
2022-09-01T19:05:54.696Z,23.20
2022-09-01T19:08:37.617Z,23.10
2022-09-01T19:11:19.609Z,23.00
2022-09-01T19:14:07.716Z,23.00
2022-09-01T19:16:59.186Z,22.90
2022-09-01T19:19:48.876Z,22.90
2022-09-01T19:22:47.198Z,22.80
2022-09-01T19:25:36.234Z,22.70
2022-09-01T19:28:15.608Z,22.50
2022-09-01T19:31:10.207Z,22.40
2022-09-01T19:33:43.687Z,22.40
2022-09-01T19:36:18.059Z,22.40
2022-09-01T19:38:45.247Z,22.30
2022-09-01T19:41:35.991Z,22.30
2022-09-01T19:44:33.495Z,22.20
2022-09-01T19:47:09.642Z,22.20
2022-09-01T19:49:46.841Z,22.10
2022-09-01T19:52:37.182Z,22.00
2022-09-01T19:55:12.135Z,22.00
2022-09-01T19:58:06.903Z,21.90
2022-09-01T20:00:52.609Z,21.90
2022-09-01T20:03:33.201Z,21.80
2022-09-01T20:06:16.967Z,21.60
2022-09-01T20:08:56.656Z,21.50
2022-09-01T20:11:44.693Z,21.20
2022-09-01T20:14:33.092Z,21.10
2022-09-01T20:17:06.743Z,21.20
2022-09-01T20:19:48.841Z,21.30
2022-09-01T20:22:19.571Z,21.40
2022-09-01T20:24:47.775Z,21.30
2022-09-01T20:27:32.097Z,21.20
2022-09-01T20:30:05.861Z,21.20
2022-09-01T20:32:41.116Z,21.20
2022-09-01T20:35:39.754Z,21.10
2022-09-01T20:38:46.194Z,21.10
2022-09-01T20:41:23.093Z,20.90
2022-09-01T20:43:52.490Z,20.80
2022-09-01T20:46:21.131Z,20.70
2022-09-01T20:48:48.467Z,20.60
2022-09-01T20:51:21.607Z,20.70
2022-09-01T20:53:52.892Z,20.70
2022-09-01T20:56:28.923Z,20.60
2022-09-01T20:59:10.129Z,20.60
2022-09-01T21:01:57.805Z,20.50
2022-09-01T21:04:24.718Z,20.40
2022-09-01T21:07:14.760Z,20.30
2022-09-01T21:10:06.856Z,20.20
2022-09-01T21:12:36.795Z,20.10
2022-09-01T21:15:29.195Z,20.10
2022-09-01T21:18:02.272Z,20.00
2022-09-01T21:20:46.793Z,20.00
2022-09-01T21:23:16.217Z,19.90
2022-09-01T21:25:46.788Z,19.80
2022-09-01T21:28:20.216Z,19.60
2022-09-01T21:30:54.321Z,19.50
2022-09-01T21:33:22.273Z,19.50
2022-09-01T21:35:49.981Z,19.50
2022-09-01T21:38:17.238Z,19.50
2022-09-01T21:40:44.904Z,19.40
2022-09-01T21:43:45.261Z,19.50
2022-09-01T21:46:14.657Z,19.40
2022-09-01T21:48:41.935Z,19.30
2022-09-01T21:51:08.869Z,19.20
2022-09-01T21:53:35.836Z,19.30
2022-09-01T21:56:02.938Z,19.30
2022-09-01T21:58:29.904Z,19.20
2022-09-01T22:00:58.749Z,19.30
2022-09-01T22:03:25.670Z,19.30
2022-09-01T22:05:52.794Z,19.20
2022-09-01T22:08:19.816Z,19.20
2022-09-01T22:10:52.105Z,19.20
2022-09-01T22:13:20.859Z,19.10
2022-09-01T22:15:51.612Z,19.10
2022-09-01T22:18:20.887Z,19.20
2022-09-01T22:20:48.421Z,19.30
2022-09-01T22:23:16.807Z,19.20
2022-09-01T22:25:45.954Z,19.20
2022-09-01T22:28:13.423Z,19.20
2022-09-01T22:30:45.332Z,19.20
2022-09-01T22:33:12.761Z,19.10
2022-09-01T22:35:44.453Z,19.10
2022-09-01T22:38:11.964Z,19.00
2022-09-01T22:41:08.657Z,19.10
2022-09-01T22:43:35.528Z,19.10
2022-09-01T22:46:05.900Z,19.10
2022-09-01T22:48:32.789Z,19.10
2022-09-01T22:51:01.948Z,19.10
2022-09-01T22:53:32.084Z,19.10
2022-09-01T22:55:58.953Z,19.10
2022-09-01T22:58:25.829Z,19.10
2022-09-01T23:00:56.289Z,19.10
2022-09-01T23:03:23.452Z,19.10
2022-09-01T23:06:02.234Z,19.10
2022-09-01T23:08:29.144Z,19.10
2022-09-01T23:10:56.066Z,19.10
2022-09-01T23:13:23.334Z,19.10
2022-09-01T23:15:50.229Z,19.00
2022-09-01T23:18:17.097Z,19.00
2022-09-01T23:20:44.060Z,19.00
2022-09-01T23:23:10.863Z,19.00
2022-09-01T23:25:37.833Z,18.90
2022-09-01T23:28:04.959Z,18.90
2022-09-01T23:30:31.846Z,18.90
2022-09-01T23:32:58.717Z,18.90
2022-09-01T23:35:25.616Z,18.80
2022-09-01T23:37:52.493Z,18.90
2022-09-01T23:40:19.699Z,18.70
2022-09-01T23:42:46.844Z,18.70
2022-09-01T23:45:13.909Z,18.80
2022-09-01T23:47:40.849Z,18.70
2022-09-01T23:50:08.379Z,18.70
2022-09-01T23:52:35.413Z,18.70
2022-09-01T23:55:02.408Z,18.70
2022-09-01T23:57:29.268Z,18.70
2022-09-01T23:59:57.134Z,18.70
